sensor_id;sensor_type;location;lat;lon;timestamp;P1;durP1;ratioP1;P2;durP2;ratioP2
80584;SDS011;70137;56.482;9.154;2023-07-31T00:02:16;10.18;;;2.45;;
80584;SDS011;70137;56.482;9.154;2023-07-31T00:04:42;13.77;;;2.60;;
80584;SDS011;70137;56.482;9.154;2023-07-31T00:07:07;11.75;;;2.60;;
80584;SDS011;70137;56.482;9.154;2023-07-31T00:09:33;8.82;;;2.20;;
80584;SDS011;70137;56.482;9.154;2023-07-31T00:11:58;11.52;;;2.38;;
80584;SDS011;70137;56.482;9.154;2023-07-31T00:14:24;7.40;;;2.20;;
80584;SDS011;70137;56.482;9.154;2023-07-31T00:16:50;9.32;;;2.45;;
80584;SDS011;70137;56.482;9.154;2023-07-31T00:19:15;6.28;;;2.25;;
80584;SDS011;70137;56.482;9.154;2023-07-31T00:21:40;10.25;;;2.03;;
80584;SDS011;70137;56.482;9.154;2023-07-31T00:24:06;9.82;;;1.92;;
80584;SDS011;70137;56.482;9.154;2023-07-31T00:26:31;6.93;;;1.60;;
80584;SDS011;70137;56.482;9.154;2023-07-31T00:28:56;8.00;;;2.30;;
80584;SDS011;70137;56.482;9.154;2023-07-31T00:31:22;5.05;;;1.98;;
80584;SDS011;70137;56.482;9.154;2023-07-31T00:33:47;7.28;;;1.77;;
80584;SDS011;70137;56.482;9.154;2023-07-31T00:36:12;4.25;;;1.35;;
80584;SDS011;70137;56.482;9.154;2023-07-31T00:38:38;4.55;;;1.50;;
80584;SDS011;70137;56.482;9.154;2023-07-31T00:41:03;9.38;;;1.77;;
80584;SDS011;70137;56.482;9.154;2023-07-31T00:43:29;7.95;;;1.80;;
80584;SDS011;70137;56.482;9.154;2023-07-31T00:45:54;3.30;;;1.58;;
80584;SDS011;70137;56.482;9.154;2023-07-31T00:48:19;4.05;;;0.80;;
80584;SDS011;70137;56.482;9.154;2023-07-31T00:50:45;2.97;;;1.10;;
80584;SDS011;70137;56.482;9.154;2023-07-31T00:53:11;5.45;;;1.20;;
80584;SDS011;70137;56.482;9.154;2023-07-31T00:55:36;4.32;;;1.10;;
80584;SDS011;70137;56.482;9.154;2023-07-31T00:58:01;2.97;;;1.10;;
80584;SDS011;70137;56.482;9.154;2023-07-31T01:00:27;6.03;;;0.95;;
80584;SDS011;70137;56.482;9.154;2023-07-31T01:02:52;4.22;;;0.90;;
80584;SDS011;70137;56.482;9.154;2023-07-31T01:05:23;3.17;;;0.70;;
80584;SDS011;70137;56.482;9.154;2023-07-31T01:08:08;3.53;;;0.85;;
80584;SDS011;70137;56.482;9.154;2023-07-31T01:10:56;5.78;;;1.27;;
80584;SDS011;70137;56.482;9.154;2023-07-31T01:13:25;2.08;;;0.90;;
80584;SDS011;70137;56.482;9.154;2023-07-31T01:15:51;2.83;;;0.90;;
80584;SDS011;70137;56.482;9.154;2023-07-31T01:18:16;6.55;;;1.15;;
80584;SDS011;70137;56.482;9.154;2023-07-31T01:20:42;3.38;;;1.20;;
80584;SDS011;70137;56.482;9.154;2023-07-31T01:25:56;2.20;;;0.90;;
80584;SDS011;70137;56.482;9.154;2023-07-31T01:28:25;1.60;;;0.77;;
80584;SDS011;70137;56.482;9.154;2023-07-31T01:31:01;2.10;;;1.00;;
80584;SDS011;70137;56.482;9.154;2023-07-31T01:33:31;5.82;;;1.00;;
80584;SDS011;70137;56.482;9.154;2023-07-31T01:35:56;1.35;;;0.82;;
80584;SDS011;70137;56.482;9.154;2023-07-31T01:38:22;3.65;;;0.98;;
80584;SDS011;70137;56.482;9.154;2023-07-31T01:40:50;5.15;;;0.95;;
80584;SDS011;70137;56.482;9.154;2023-07-31T01:43:17;3.33;;;1.27;;
80584;SDS011;70137;56.482;9.154;2023-07-31T01:45:43;5.22;;;0.90;;
80584;SDS011;70137;56.482;9.154;2023-07-31T01:48:08;2.92;;;0.98;;
80584;SDS011;70137;56.482;9.154;2023-07-31T01:50:33;3.97;;;0.90;;
80584;SDS011;70137;56.482;9.154;2023-07-31T01:52:59;5.03;;;1.00;;
80584;SDS011;70137;56.482;9.154;2023-07-31T01:55:24;3.85;;;1.15;;
80584;SDS011;70137;56.482;9.154;2023-07-31T01:57:49;2.72;;;0.95;;
80584;SDS011;70137;56.482;9.154;2023-07-31T02:00:15;4.93;;;1.10;;
80584;SDS011;70137;56.482;9.154;2023-07-31T02:02:40;2.53;;;1.10;;
80584;SDS011;70137;56.482;9.154;2023-07-31T02:05:06;4.25;;;1.27;;
80584;SDS011;70137;56.482;9.154;2023-07-31T02:07:31;5.93;;;1.30;;
80584;SDS011;70137;56.482;9.154;2023-07-31T02:09:56;3.85;;;1.02;;
80584;SDS011;70137;56.482;9.154;2023-07-31T02:12:22;7.43;;;1.70;;
80584;SDS011;70137;56.482;9.154;2023-07-31T02:14:47;6.35;;;1.75;;
80584;SDS011;70137;56.482;9.154;2023-07-31T02:17:12;10.98;;;1.95;;
80584;SDS011;70137;56.482;9.154;2023-07-31T02:19:38;6.38;;;2.00;;
80584;SDS011;70137;56.482;9.154;2023-07-31T02:22:03;9.73;;;2.00;;
80584;SDS011;70137;56.482;9.154;2023-07-31T02:24:29;6.47;;;1.70;;
80584;SDS011;70137;56.482;9.154;2023-07-31T02:26:54;11.52;;;2.38;;
80584;SDS011;70137;56.482;9.154;2023-07-31T02:29:20;8.95;;;2.40;;
80584;SDS011;70137;56.482;9.154;2023-07-31T02:31:45;8.50;;;2.10;;
80584;SDS011;70137;56.482;9.154;2023-07-31T02:34:10;6.50;;;1.98;;
80584;SDS011;70137;56.482;9.154;2023-07-31T02:36:36;8.30;;;2.20;;
80584;SDS011;70137;56.482;9.154;2023-07-31T02:39:01;8.50;;;2.10;;
80584;SDS011;70137;56.482;9.154;2023-07-31T02:41:26;9.65;;;2.55;;
80584;SDS011;70137;56.482;9.154;2023-07-31T02:43:52;7.13;;;1.90;;
80584;SDS011;70137;56.482;9.154;2023-07-31T02:46:17;9.30;;;2.70;;
80584;SDS011;70137;56.482;9.154;2023-07-31T02:48:42;14.88;;;2.35;;
80584;SDS011;70137;56.482;9.154;2023-07-31T02:51:07;8.40;;;2.15;;
80584;SDS011;70137;56.482;9.154;2023-07-31T02:53:33;8.43;;;2.33;;
80584;SDS011;70137;56.482;9.154;2023-07-31T02:55:58;9.18;;;2.42;;
80584;SDS011;70137;56.482;9.154;2023-07-31T02:58:23;7.70;;;2.60;;
80584;SDS011;70137;56.482;9.154;2023-07-31T03:00:49;7.28;;;2.40;;
80584;SDS011;70137;56.482;9.154;2023-07-31T03:03:14;4.63;;;1.98;;
80584;SDS011;70137;56.482;9.154;2023-07-31T03:05:39;9.77;;;2.28;;
80584;SDS011;70137;56.482;9.154;2023-07-31T03:08:05;9.52;;;2.47;;
80584;SDS011;70137;56.482;9.154;2023-07-31T03:10:30;8.15;;;2.42;;
80584;SDS011;70137;56.482;9.154;2023-07-31T03:12:56;6.40;;;1.95;;
80584;SDS011;70137;56.482;9.154;2023-07-31T03:15:21;8.32;;;2.38;;
80584;SDS011;70137;56.482;9.154;2023-07-31T03:17:46;5.90;;;2.28;;
80584;SDS011;70137;56.482;9.154;2023-07-31T03:20:12;4.50;;;1.80;;
80584;SDS011;70137;56.482;9.154;2023-07-31T03:22:37;8.57;;;2.35;;
80584;SDS011;70137;56.482;9.154;2023-07-31T03:25:03;4.53;;;1.80;;
80584;SDS011;70137;56.482;9.154;2023-07-31T03:27:29;9.95;;;2.10;;
80584;SDS011;70137;56.482;9.154;2023-07-31T03:29:54;5.72;;;1.95;;
80584;SDS011;70137;56.482;9.154;2023-07-31T03:32:20;8.27;;;2.38;;
80584;SDS011;70137;56.482;9.154;2023-07-31T03:34:45;8.48;;;1.95;;
80584;SDS011;70137;56.482;9.154;2023-07-31T03:37:10;5.85;;;1.90;;
80584;SDS011;70137;56.482;9.154;2023-07-31T03:39:36;5.72;;;1.70;;
80584;SDS011;70137;56.482;9.154;2023-07-31T03:42:01;5.60;;;1.80;;
80584;SDS011;70137;56.482;9.154;2023-07-31T03:44:27;6.40;;;1.90;;
80584;SDS011;70137;56.482;9.154;2023-07-31T03:46:52;7.75;;;1.92;;
80584;SDS011;70137;56.482;9.154;2023-07-31T03:49:18;8.27;;;1.80;;
80584;SDS011;70137;56.482;9.154;2023-07-31T03:51:43;6.85;;;1.50;;
80584;SDS011;70137;56.482;9.154;2023-07-31T03:54:09;5.10;;;1.50;;
80584;SDS011;70137;56.482;9.154;2023-07-31T03:56:35;6.40;;;1.90;;
80584;SDS011;70137;56.482;9.154;2023-07-31T03:59:00;5.50;;;1.60;;
80584;SDS011;70137;56.482;9.154;2023-07-31T04:01:25;8.55;;;1.77;;
80584;SDS011;70137;56.482;9.154;2023-07-31T04:03:51;3.97;;;1.50;;
80584;SDS011;70137;56.482;9.154;2023-07-31T04:06:16;4.57;;;1.70;;
80584;SDS011;70137;56.482;9.154;2023-07-31T04:08:44;6.25;;;1.80;;
80584;SDS011;70137;56.482;9.154;2023-07-31T04:11:10;5.82;;;1.90;;
80584;SDS011;70137;56.482;9.154;2023-07-31T04:13:36;5.65;;;1.63;;
80584;SDS011;70137;56.482;9.154;2023-07-31T04:16:01;7.25;;;1.58;;
80584;SDS011;70137;56.482;9.154;2023-07-31T04:18:27;5.45;;;1.92;;
80584;SDS011;70137;56.482;9.154;2023-07-31T04:20:52;10.38;;;1.85;;
80584;SDS011;70137;56.482;9.154;2023-07-31T04:23:18;3.33;;;1.63;;
80584;SDS011;70137;56.482;9.154;2023-07-31T04:25:43;8.45;;;1.90;;
80584;SDS011;70137;56.482;9.154;2023-07-31T04:28:08;6.90;;;1.60;;
80584;SDS011;70137;56.482;9.154;2023-07-31T04:30:34;4.55;;;1.67;;
80584;SDS011;70137;56.482;9.154;2023-07-31T04:32:59;10.93;;;1.80;;
80584;SDS011;70137;56.482;9.154;2023-07-31T04:35:24;6.15;;;1.88;;
80584;SDS011;70137;56.482;9.154;2023-07-31T04:37:50;6.10;;;1.60;;
80584;SDS011;70137;56.482;9.154;2023-07-31T04:40:15;4.93;;;1.73;;
80584;SDS011;70137;56.482;9.154;2023-07-31T04:42:41;6.70;;;1.92;;
80584;SDS011;70137;56.482;9.154;2023-07-31T04:45:08;10.00;;;2.20;;
80584;SDS011;70137;56.482;9.154;2023-07-31T04:47:34;10.68;;;1.85;;
80584;SDS011;70137;56.482;9.154;2023-07-31T04:49:59;5.40;;;1.80;;
80584;SDS011;70137;56.482;9.154;2023-07-31T04:52:24;7.63;;;2.05;;
80584;SDS011;70137;56.482;9.154;2023-07-31T04:54:50;5.32;;;1.50;;
80584;SDS011;70137;56.482;9.154;2023-07-31T04:57:15;6.95;;;1.52;;
80584;SDS011;70137;56.482;9.154;2023-07-31T04:59:40;7.10;;;1.65;;
80584;SDS011;70137;56.482;9.154;2023-07-31T05:02:07;6.53;;;1.80;;
80584;SDS011;70137;56.482;9.154;2023-07-31T05:04:33;9.68;;;1.60;;
80584;SDS011;70137;56.482;9.154;2023-07-31T05:06:59;8.65;;;1.83;;
80584;SDS011;70137;56.482;9.154;2023-07-31T05:09:24;7.47;;;1.90;;
80584;SDS011;70137;56.482;9.154;2023-07-31T05:11:49;8.73;;;1.63;;
80584;SDS011;70137;56.482;9.154;2023-07-31T05:14:15;5.47;;;1.42;;
80584;SDS011;70137;56.482;9.154;2023-07-31T05:16:40;7.85;;;1.50;;
80584;SDS011;70137;56.482;9.154;2023-07-31T05:19:06;9.98;;;1.50;;
80584;SDS011;70137;56.482;9.154;2023-07-31T05:21:31;6.10;;;1.40;;
80584;SDS011;70137;56.482;9.154;2023-07-31T05:23:57;5.55;;;1.17;;
80584;SDS011;70137;56.482;9.154;2023-07-31T05:26:22;6.18;;;1.52;;
80584;SDS011;70137;56.482;9.154;2023-07-31T05:28:48;7.60;;;1.35;;
80584;SDS011;70137;56.482;9.154;2023-07-31T05:31:13;4.45;;;1.27;;
80584;SDS011;70137;56.482;9.154;2023-07-31T05:33:38;10.73;;;1.65;;
80584;SDS011;70137;56.482;9.154;2023-07-31T05:36:04;10.55;;;1.90;;
80584;SDS011;70137;56.482;9.154;2023-07-31T05:38:29;7.10;;;1.45;;
80584;SDS011;70137;56.482;9.154;2023-07-31T05:40:55;6.45;;;1.60;;
80584;SDS011;70137;56.482;9.154;2023-07-31T05:43:20;9.60;;;1.48;;
80584;SDS011;70137;56.482;9.154;2023-07-31T05:45:46;9.20;;;1.52;;
80584;SDS011;70137;56.482;9.154;2023-07-31T05:48:11;11.30;;;1.30;;
80584;SDS011;70137;56.482;9.154;2023-07-31T05:50:36;10.35;;;1.70;;
80584;SDS011;70137;56.482;9.154;2023-07-31T05:53:05;7.95;;;1.20;;
80584;SDS011;70137;56.482;9.154;2023-07-31T05:55:32;13.23;;;1.55;;
80584;SDS011;70137;56.482;9.154;2023-07-31T05:57:58;11.70;;;1.58;;
80584;SDS011;70137;56.482;9.154;2023-07-31T06:00:23;9.05;;;1.88;;
80584;SDS011;70137;56.482;9.154;2023-07-31T06:02:49;6.85;;;1.67;;
80584;SDS011;70137;56.482;9.154;2023-07-31T06:05:14;9.10;;;1.60;;
80584;SDS011;70137;56.482;9.154;2023-07-31T06:07:40;6.82;;;1.52;;
80584;SDS011;70137;56.482;9.154;2023-07-31T06:10:05;9.30;;;1.35;;
80584;SDS011;70137;56.482;9.154;2023-07-31T06:12:32;9.90;;;1.52;;
80584;SDS011;70137;56.482;9.154;2023-07-31T06:14:58;11.60;;;1.77;;
80584;SDS011;70137;56.482;9.154;2023-07-31T06:17:23;7.60;;;1.50;;
80584;SDS011;70137;56.482;9.154;2023-07-31T06:19:49;8.77;;;1.50;;
80584;SDS011;70137;56.482;9.154;2023-07-31T06:22:14;8.45;;;1.50;;
80584;SDS011;70137;56.482;9.154;2023-07-31T06:24:40;12.85;;;1.88;;
80584;SDS011;70137;56.482;9.154;2023-07-31T06:27:05;10.40;;;1.83;;
80584;SDS011;70137;56.482;9.154;2023-07-31T06:29:31;9.82;;;1.67;;
80584;SDS011;70137;56.482;9.154;2023-07-31T06:31:57;7.50;;;1.50;;
80584;SDS011;70137;56.482;9.154;2023-07-31T06:34:22;9.50;;;1.70;;
80584;SDS011;70137;56.482;9.154;2023-07-31T06:36:48;9.77;;;2.35;;
80584;SDS011;70137;56.482;9.154;2023-07-31T06:39:13;9.25;;;1.80;;
80584;SDS011;70137;56.482;9.154;2023-07-31T06:41:39;8.63;;;1.60;;
80584;SDS011;70137;56.482;9.154;2023-07-31T06:44:04;7.78;;;1.65;;
80584;SDS011;70137;56.482;9.154;2023-07-31T06:46:29;10.73;;;1.85;;
80584;SDS011;70137;56.482;9.154;2023-07-31T06:48:55;11.48;;;1.83;;
80584;SDS011;70137;56.482;9.154;2023-07-31T06:51:20;12.32;;;2.13;;
80584;SDS011;70137;56.482;9.154;2023-07-31T06:53:45;11.48;;;2.22;;
80584;SDS011;70137;56.482;9.154;2023-07-31T06:56:11;5.95;;;1.48;;
80584;SDS011;70137;56.482;9.154;2023-07-31T06:58:37;9.52;;;1.83;;
80584;SDS011;70137;56.482;9.154;2023-07-31T07:01:02;12.45;;;2.30;;
80584;SDS011;70137;56.482;9.154;2023-07-31T07:03:28;8.57;;;1.80;;
80584;SDS011;70137;56.482;9.154;2023-07-31T07:05:53;11.98;;;2.17;;
80584;SDS011;70137;56.482;9.154;2023-07-31T07:08:18;9.80;;;2.50;;
80584;SDS011;70137;56.482;9.154;2023-07-31T07:10:44;12.27;;;2.22;;
80584;SDS011;70137;56.482;9.154;2023-07-31T07:13:09;10.85;;;1.98;;
80584;SDS011;70137;56.482;9.154;2023-07-31T07:15:35;9.52;;;1.80;;
80584;SDS011;70137;56.482;9.154;2023-07-31T07:18:00;16.67;;;1.90;;
80584;SDS011;70137;56.482;9.154;2023-07-31T07:20:25;9.55;;;1.85;;
80584;SDS011;70137;56.482;9.154;2023-07-31T07:22:51;11.10;;;2.40;;
80584;SDS011;70137;56.482;9.154;2023-07-31T07:25:16;13.32;;;1.92;;
80584;SDS011;70137;56.482;9.154;2023-07-31T07:27:41;8.27;;;1.58;;
80584;SDS011;70137;56.482;9.154;2023-07-31T07:30:07;6.85;;;1.50;;
80584;SDS011;70137;56.482;9.154;2023-07-31T07:32:32;9.77;;;1.77;;
80584;SDS011;70137;56.482;9.154;2023-07-31T07:34:58;8.15;;;1.60;;
80584;SDS011;70137;56.482;9.154;2023-07-31T07:37:23;15.65;;;1.77;;
80584;SDS011;70137;56.482;9.154;2023-07-31T07:39:49;7.78;;;1.83;;
80584;SDS011;70137;56.482;9.154;2023-07-31T07:42:14;9.18;;;1.80;;
80584;SDS011;70137;56.482;9.154;2023-07-31T07:44:40;8.70;;;2.22;;
80584;SDS011;70137;56.482;9.154;2023-07-31T07:47:05;13.23;;;2.55;;
80584;SDS011;70137;56.482;9.154;2023-07-31T07:49:33;6.80;;;2.08;;
80584;SDS011;70137;56.482;9.154;2023-07-31T07:52:00;11.38;;;2.03;;
80584;SDS011;70137;56.482;9.154;2023-07-31T07:54:26;7.03;;;1.80;;
80584;SDS011;70137;56.482;9.154;2023-07-31T07:56:51;7.10;;;1.80;;
80584;SDS011;70137;56.482;9.154;2023-07-31T07:59:16;7.88;;;1.80;;
80584;SDS011;70137;56.482;9.154;2023-07-31T08:01:42;9.52;;;1.98;;
80584;SDS011;70137;56.482;9.154;2023-07-31T08:04:07;5.82;;;1.90;;
80584;SDS011;70137;56.482;9.154;2023-07-31T08:06:33;8.82;;;2.00;;
80584;SDS011;70137;56.482;9.154;2023-07-31T08:08:58;7.82;;;1.90;;
80584;SDS011;70137;56.482;9.154;2023-07-31T08:11:24;9.70;;;1.75;;
80584;SDS011;70137;56.482;9.154;2023-07-31T08:13:49;9.38;;;2.03;;
80584;SDS011;70137;56.482;9.154;2023-07-31T08:16:15;6.72;;;1.85;;
80584;SDS011;70137;56.482;9.154;2023-07-31T08:18:40;7.45;;;1.60;;
80584;SDS011;70137;56.482;9.154;2023-07-31T08:21:07;7.30;;;1.35;;
80584;SDS011;70137;56.482;9.154;2023-07-31T08:23:33;6.38;;;1.55;;
80584;SDS011;70137;56.482;9.154;2023-07-31T08:25:58;6.97;;;1.73;;
80584;SDS011;70137;56.482;9.154;2023-07-31T08:28:23;9.70;;;1.70;;
80584;SDS011;70137;56.482;9.154;2023-07-31T08:30:49;6.50;;;1.52;;
80584;SDS011;70137;56.482;9.154;2023-07-31T08:33:15;9.98;;;2.47;;
80584;SDS011;70137;56.482;9.154;2023-07-31T08:35:41;5.03;;;1.58;;
80584;SDS011;70137;56.482;9.154;2023-07-31T08:38:06;7.30;;;1.63;;
80584;SDS011;70137;56.482;9.154;2023-07-31T08:40:32;4.03;;;1.50;;
80584;SDS011;70137;56.482;9.154;2023-07-31T08:43:02;6.57;;;1.50;;
80584;SDS011;70137;56.482;9.154;2023-07-31T08:45:28;6.28;;;1.55;;
80584;SDS011;70137;56.482;9.154;2023-07-31T08:47:54;4.63;;;1.17;;
80584;SDS011;70137;56.482;9.154;2023-07-31T08:50:21;5.15;;;1.02;;
80584;SDS011;70137;56.482;9.154;2023-07-31T08:52:47;5.32;;;1.50;;
80584;SDS011;70137;56.482;9.154;2023-07-31T08:55:14;3.80;;;1.20;;
80584;SDS011;70137;56.482;9.154;2023-07-31T08:57:40;3.38;;;0.98;;
80584;SDS011;70137;56.482;9.154;2023-07-31T09:00:08;7.13;;;1.13;;
80584;SDS011;70137;56.482;9.154;2023-07-31T09:02:37;5.78;;;1.13;;
80584;SDS011;70137;56.482;9.154;2023-07-31T09:05:09;4.30;;;0.93;;
80584;SDS011;70137;56.482;9.154;2023-07-31T09:07:36;4.80;;;1.00;;
80584;SDS011;70137;56.482;9.154;2023-07-31T09:10:03;5.40;;;1.00;;
80584;SDS011;70137;56.482;9.154;2023-07-31T09:12:29;4.18;;;0.82;;
80584;SDS011;70137;56.482;9.154;2023-07-31T09:14:56;3.83;;;0.60;;
80584;SDS011;70137;56.482;9.154;2023-07-31T09:17:58;6.97;;;0.80;;
80584;SDS011;70137;56.482;9.154;2023-07-31T09:20:23;4.15;;;0.68;;
80584;SDS011;70137;56.482;9.154;2023-07-31T09:22:48;4.20;;;0.75;;
80584;SDS011;70137;56.482;9.154;2023-07-31T09:25:26;2.40;;;0.60;;
80584;SDS011;70137;56.482;9.154;2023-07-31T09:27:57;4.53;;;0.60;;
80584;SDS011;70137;56.482;9.154;2023-07-31T09:30:24;4.85;;;0.70;;
80584;SDS011;70137;56.482;9.154;2023-07-31T09:32:50;4.22;;;0.85;;
80584;SDS011;70137;56.482;9.154;2023-07-31T09:37:52;3.55;;;0.75;;
80584;SDS011;70137;56.482;9.154;2023-07-31T09:43:18;1.83;;;0.55;;
80584;SDS011;70137;56.482;9.154;2023-07-31T09:45:46;6.85;;;0.80;;
80584;SDS011;70137;56.482;9.154;2023-07-31T09:48:12;3.33;;;0.63;;
80584;SDS011;70137;56.482;9.154;2023-07-31T09:50:41;5.25;;;0.68;;
80584;SDS011;70137;56.482;9.154;2023-07-31T09:53:08;5.18;;;0.80;;
80584;SDS011;70137;56.482;9.154;2023-07-31T09:55:34;6.03;;;0.90;;
80584;SDS011;70137;56.482;9.154;2023-07-31T09:58:02;4.95;;;0.88;;
80584;SDS011;70137;56.482;9.154;2023-07-31T10:00:30;6.43;;;0.90;;
80584;SDS011;70137;56.482;9.154;2023-07-31T10:02:58;6.35;;;0.80;;
80584;SDS011;70137;56.482;9.154;2023-07-31T10:05:24;3.40;;;0.93;;
80584;SDS011;70137;56.482;9.154;2023-07-31T10:07:56;3.58;;;0.80;;
80584;SDS011;70137;56.482;9.154;2023-07-31T10:10:22;7.07;;;1.30;;
80584;SDS011;70137;56.482;9.154;2023-07-31T10:12:48;3.47;;;0.80;;
80584;SDS011;70137;56.482;9.154;2023-07-31T10:15:15;3.90;;;1.00;;
80584;SDS011;70137;56.482;9.154;2023-07-31T10:17:41;4.97;;;0.82;;
80584;SDS011;70137;56.482;9.154;2023-07-31T10:20:07;4.72;;;0.93;;
80584;SDS011;70137;56.482;9.154;2023-07-31T10:22:35;4.35;;;1.08;;
80584;SDS011;70137;56.482;9.154;2023-07-31T10:25:01;4.97;;;0.75;;
80584;SDS011;70137;56.482;9.154;2023-07-31T10:27:27;6.38;;;1.00;;
80584;SDS011;70137;56.482;9.154;2023-07-31T10:29:56;7.65;;;0.90;;
80584;SDS011;70137;56.482;9.154;2023-07-31T10:32:22;2.63;;;0.70;;
80584;SDS011;70137;56.482;9.154;2023-07-31T10:34:50;2.92;;;0.70;;
80584;SDS011;70137;56.482;9.154;2023-07-31T10:37:19;3.42;;;0.85;;
80584;SDS011;70137;56.482;9.154;2023-07-31T10:39:57;2.35;;;0.60;;
80584;SDS011;70137;56.482;9.154;2023-07-31T10:42:29;6.03;;;0.80;;
80584;SDS011;70137;56.482;9.154;2023-07-31T10:45:03;2.10;;;0.50;;
80584;SDS011;70137;56.482;9.154;2023-07-31T10:47:30;2.95;;;0.50;;
80584;SDS011;70137;56.482;9.154;2023-07-31T10:52:46;3.50;;;0.90;;
80584;SDS011;70137;56.482;9.154;2023-07-31T10:57:51;3.13;;;0.85;;
80584;SDS011;70137;56.482;9.154;2023-07-31T11:03:01;1.63;;;0.40;;
80584;SDS011;70137;56.482;9.154;2023-07-31T11:08:27;6.03;;;0.90;;
80584;SDS011;70137;56.482;9.154;2023-07-31T11:13:31;3.67;;;0.77;;
80584;SDS011;70137;56.482;9.154;2023-07-31T11:15:58;3.13;;;0.95;;
80584;SDS011;70137;56.482;9.154;2023-07-31T11:18:25;2.83;;;0.80;;
80584;SDS011;70137;56.482;9.154;2023-07-31T11:20:52;3.05;;;0.90;;
80584;SDS011;70137;56.482;9.154;2023-07-31T11:23:18;3.30;;;1.00;;
80584;SDS011;70137;56.482;9.154;2023-07-31T11:25:44;3.42;;;0.73;;
80584;SDS011;70137;56.482;9.154;2023-07-31T11:28:10;2.40;;;0.70;;
80584;SDS011;70137;56.482;9.154;2023-07-31T11:30:41;1.60;;;0.50;;
80584;SDS011;70137;56.482;9.154;2023-07-31T11:33:07;3.35;;;0.68;;
80584;SDS011;70137;56.482;9.154;2023-07-31T11:35:44;2.25;;;0.60;;
80584;SDS011;70137;56.482;9.154;2023-07-31T11:38:32;1.20;;;0.40;;
80584;SDS011;70137;56.482;9.154;2023-07-31T11:40:58;0.95;;;0.50;;
80584;SDS011;70137;56.482;9.154;2023-07-31T11:43:26;2.92;;;0.70;;
80584;SDS011;70137;56.482;9.154;2023-07-31T11:45:52;1.73;;;0.30;;
80584;SDS011;70137;56.482;9.154;2023-07-31T11:48:23;4.15;;;0.25;;
80584;SDS011;70137;56.482;9.154;2023-07-31T11:50:52;1.88;;;0.22;;
80584;SDS011;70137;56.482;9.154;2023-07-31T11:53:25;1.67;;;0.45;;
80584;SDS011;70137;56.482;9.154;2023-07-31T11:55:55;0.63;;;0.30;;
80584;SDS011;70137;56.482;9.154;2023-07-31T11:58:24;1.42;;;0.30;;
80584;SDS011;70137;56.482;9.154;2023-07-31T12:00:49;1.77;;;0.40;;
80584;SDS011;70137;56.482;9.154;2023-07-31T12:03:16;2.03;;;0.30;;
80584;SDS011;70137;56.482;9.154;2023-07-31T12:05:42;0.35;;;0.20;;
80584;SDS011;70137;56.482;9.154;2023-07-31T12:08:08;2.78;;;0.40;;
80584;SDS011;70137;56.482;9.154;2023-07-31T12:10:35;1.38;;;0.30;;
80584;SDS011;70137;56.482;9.154;2023-07-31T12:13:02;1.90;;;0.30;;
80584;SDS011;70137;56.482;9.154;2023-07-31T12:15:31;1.17;;;0.38;;
80584;SDS011;70137;56.482;9.154;2023-07-31T12:18:14;2.78;;;0.40;;
80584;SDS011;70137;56.482;9.154;2023-07-31T12:20:44;1.38;;;0.22;;
80584;SDS011;70137;56.482;9.154;2023-07-31T12:23:18;0.68;;;0.20;;
80584;SDS011;70137;56.482;9.154;2023-07-31T12:28:27;0.93;;;0.23;;
80584;SDS011;70137;56.482;9.154;2023-07-31T12:30:52;1.45;;;0.20;;
80584;SDS011;70137;56.482;9.154;2023-07-31T12:33:23;1.50;;;0.22;;
80584;SDS011;70137;56.482;9.154;2023-07-31T12:35:48;0.65;;;0.20;;
80584;SDS011;70137;56.482;9.154;2023-07-31T12:38:13;2.47;;;0.30;;
80584;SDS011;70137;56.482;9.154;2023-07-31T12:40:40;0.70;;;0.20;;
80584;SDS011;70137;56.482;9.154;2023-07-31T12:43:06;1.77;;;0.47;;
80584;SDS011;70137;56.482;9.154;2023-07-31T12:45:34;1.90;;;0.32;;
80584;SDS011;70137;56.482;9.154;2023-07-31T12:48:00;1.80;;;0.30;;
80584;SDS011;70137;56.482;9.154;2023-07-31T12:50:26;1.38;;;0.30;;
80584;SDS011;70137;56.482;9.154;2023-07-31T12:52:55;0.50;;;0.20;;
80584;SDS011;70137;56.482;9.154;2023-07-31T12:55:21;0.38;;;0.20;;
80584;SDS011;70137;56.482;9.154;2023-07-31T12:57:47;2.05;;;0.50;;
80584;SDS011;70137;56.482;9.154;2023-07-31T13:00:13;4.55;;;0.43;;
80584;SDS011;70137;56.482;9.154;2023-07-31T13:02:39;1.10;;;0.28;;
80584;SDS011;70137;56.482;9.154;2023-07-31T13:05:04;2.08;;;0.35;;
80584;SDS011;70137;56.482;9.154;2023-07-31T13:07:30;1.75;;;0.30;;
80584;SDS011;70137;56.482;9.154;2023-07-31T13:09:55;2.15;;;0.40;;
80584;SDS011;70137;56.482;9.154;2023-07-31T13:12:21;2.75;;;0.30;;
80584;SDS011;70137;56.482;9.154;2023-07-31T13:14:46;1.25;;;0.40;;
80584;SDS011;70137;56.482;9.154;2023-07-31T13:17:11;0.28;;;0.20;;
80584;SDS011;70137;56.482;9.154;2023-07-31T13:19:36;2.17;;;0.50;;
80584;SDS011;70137;56.482;9.154;2023-07-31T13:22:02;3.42;;;0.38;;
80584;SDS011;70137;56.482;9.154;2023-07-31T13:24:27;7.13;;;0.40;;
80584;SDS011;70137;56.482;9.154;2023-07-31T13:26:53;5.25;;;0.40;;
80584;SDS011;70137;56.482;9.154;2023-07-31T13:29:18;1.77;;;0.38;;
80584;SDS011;70137;56.482;9.154;2023-07-31T13:31:43;0.65;;;0.38;;
80584;SDS011;70137;56.482;9.154;2023-07-31T13:34:09;1.77;;;0.40;;
80584;SDS011;70137;56.482;9.154;2023-07-31T13:36:34;2.03;;;0.30;;
80584;SDS011;70137;56.482;9.154;2023-07-31T13:39:02;0.45;;;0.20;;
80584;SDS011;70137;56.482;9.154;2023-07-31T13:41:27;2.03;;;0.45;;
80584;SDS011;70137;56.482;9.154;2023-07-31T13:43:52;2.05;;;0.30;;
80584;SDS011;70137;56.482;9.154;2023-07-31T13:46:18;2.03;;;0.30;;
80584;SDS011;70137;56.482;9.154;2023-07-31T13:48:43;3.70;;;0.30;;
80584;SDS011;70137;56.482;9.154;2023-07-31T13:51:08;1.65;;;0.22;;
80584;SDS011;70137;56.482;9.154;2023-07-31T13:53:34;0.90;;;0.30;;
80584;SDS011;70137;56.482;9.154;2023-07-31T13:55:59;1.85;;;0.30;;
80584;SDS011;70137;56.482;9.154;2023-07-31T13:58:24;1.55;;;0.28;;
80584;SDS011;70137;56.482;9.154;2023-07-31T14:00:50;0.75;;;0.30;;
80584;SDS011;70137;56.482;9.154;2023-07-31T14:03:15;0.98;;;0.20;;
80584;SDS011;70137;56.482;9.154;2023-07-31T14:05:40;1.25;;;0.30;;
80584;SDS011;70137;56.482;9.154;2023-07-31T14:08:06;2.20;;;0.40;;
80584;SDS011;70137;56.482;9.154;2023-07-31T14:10:31;1.80;;;0.50;;
80584;SDS011;70137;56.482;9.154;2023-07-31T14:12:56;1.58;;;0.30;;
80584;SDS011;70137;56.482;9.154;2023-07-31T14:15:21;2.35;;;0.30;;
80584;SDS011;70137;56.482;9.154;2023-07-31T14:17:47;3.03;;;0.50;;
80584;SDS011;70137;56.482;9.154;2023-07-31T14:20:12;1.20;;;0.40;;
80584;SDS011;70137;56.482;9.154;2023-07-31T14:22:38;1.02;;;0.40;;
80584;SDS011;70137;56.482;9.154;2023-07-31T14:25:03;1.55;;;0.50;;
80584;SDS011;70137;56.482;9.154;2023-07-31T14:27:29;1.25;;;0.30;;
80584;SDS011;70137;56.482;9.154;2023-07-31T14:29:54;3.50;;;0.43;;
80584;SDS011;70137;56.482;9.154;2023-07-31T14:32:20;0.85;;;0.50;;
80584;SDS011;70137;56.482;9.154;2023-07-31T14:34:46;5.28;;;0.50;;
80584;SDS011;70137;56.482;9.154;2023-07-31T14:37:11;0.63;;;0.40;;
80584;SDS011;70137;56.482;9.154;2023-07-31T14:39:36;11.77;;;1.00;;
80584;SDS011;70137;56.482;9.154;2023-07-31T14:42:02;1.05;;;0.30;;
80584;SDS011;70137;56.482;9.154;2023-07-31T14:44:27;2.15;;;0.43;;
80584;SDS011;70137;56.482;9.154;2023-07-31T14:46:52;1.85;;;0.65;;
80584;SDS011;70137;56.482;9.154;2023-07-31T14:49:18;0.70;;;0.32;;
80584;SDS011;70137;56.482;9.154;2023-07-31T14:51:43;2.78;;;0.70;;
80584;SDS011;70137;56.482;9.154;2023-07-31T14:54:08;2.50;;;0.50;;
80584;SDS011;70137;56.482;9.154;2023-07-31T14:56:33;2.00;;;0.75;;
80584;SDS011;70137;56.482;9.154;2023-07-31T14:58:59;1.17;;;0.50;;
80584;SDS011;70137;56.482;9.154;2023-07-31T15:01:24;2.13;;;0.70;;
80584;SDS011;70137;56.482;9.154;2023-07-31T15:03:49;2.20;;;0.63;;
80584;SDS011;70137;56.482;9.154;2023-07-31T15:06:15;3.30;;;0.63;;